EZS52LF DTTJ-LFSB
Flight info
| Callsign | EZS52LF |
|---|---|
| Flight time | 2h 29m |
| Altitude | 36000 |
| Route | KBIRA1A KBIRA V334 NEDOS UV334 TBK UM858 DOPEL DCT CAR DCT UPDUT DCT CORSI DCT OKROK DCT AKUTI DCT TORTU DCT ERTEV DCT SRN DCT ABESI DCT UTAVO DCT ELMUR T718 RIGVI |
| Aircraft | A320/M-SDE2E3FGHIJ1RWXYZ/LB1 |
Departure
| Time | 2026-04-30 06:39 |
|---|---|
| Airport | Djerba Zarzis International Airport (DTTJ) |
Arrival
| Time | 2026-04-30 09:09 |
|---|---|
| Airport | EuroAirport Basel–Mulhouse–Freiburg (LFSB) |
| Time | Latitude | Longitude | Altitude | Speed | Heading |
|---|---|---|---|---|---|
| 2026-04-30 06:25 | 33.87320 | 10.77579 | 27 ft | 0 kts | 178° |
| 2026-04-30 06:31 | 33.87333 | 10.77578 | 27 ft | 4 kts | 178° |
| 2026-04-30 06:31 | 33.87355 | 10.77578 | 26 ft | 4 kts | 190° |
| 2026-04-30 06:31 | 33.87376 | 10.77591 | 26 ft | 4 kts | 240° |
| 2026-04-30 06:32 | 33.87384 | 10.77620 | 30 ft | 3 kts | 267° |
| 2026-04-30 06:32 | 33.87384 | 10.77624 | 31 ft | 0 kts | 268° |
| 2026-04-30 06:35 | 33.87384 | 10.77609 | 31 ft | 5 kts | 268° |
| 2026-04-30 06:35 | 33.87382 | 10.77548 | 26 ft | 10 kts | 268° |
| 2026-04-30 06:35 | 33.87380 | 10.77439 | 27 ft | 16 kts | 268° |
| 2026-04-30 06:36 | 33.87371 | 10.77297 | 27 ft | 17 kts | 257° |
| 2026-04-30 06:36 | 33.87364 | 10.77160 | 27 ft | 17 kts | 268° |
| 2026-04-30 06:36 | 33.87360 | 10.77002 | 27 ft | 21 kts | 268° |
| 2026-04-30 06:36 | 33.87353 | 10.76815 | 24 ft | 24 kts | 266° |
| 2026-04-30 06:37 | 33.87346 | 10.76602 | 20 ft | 27 kts | 273° |
| 2026-04-30 06:37 | 33.87349 | 10.76384 | 21 ft | 26 kts | 266° |
| 2026-04-30 06:37 | 33.87338 | 10.76175 | 17 ft | 18 kts | 269° |
| 2026-04-30 06:37 | 33.87365 | 10.76069 | 18 ft | 13 kts | 324° |
| 2026-04-30 06:38 | 33.87446 | 10.76052 | 21 ft | 11 kts | 359° |
| 2026-04-30 06:38 | 33.87503 | 10.76083 | 22 ft | 9 kts | 75° |
| 2026-04-30 06:38 | 33.87506 | 10.76187 | 22 ft | 27 kts | 87° |
| 2026-04-30 06:38 | 33.87522 | 10.76730 | 20 ft | 99 kts | 88° |
| 2026-04-30 06:39 | 33.87548 | 10.77795 | 22 ft | 154 kts | 88° |
| 2026-04-30 06:39 | 33.87577 | 10.79176 | 373 ft | 170 kts | 86° |
| 2026-04-30 06:39 | 33.87727 | 10.80585 | 991 ft | 170 kts | 66° |
| 2026-04-30 06:39 | 33.88416 | 10.81776 | 1436 ft | 182 kts | 38° |
| 2026-04-30 06:40 | 33.89551 | 10.82465 | 1874 ft | 189 kts | 9° |
| 2026-04-30 06:40 | 33.90888 | 10.82375 | 2262 ft | 199 kts | 338° |
| 2026-04-30 06:40 | 33.92045 | 10.81448 | 2708 ft | 205 kts | 308° |
| 2026-04-30 06:40 | 33.92885 | 10.79978 | 3098 ft | 218 kts | 302° |
| 2026-04-30 06:41 | 33.93712 | 10.78483 | 3800 ft | 218 kts | 303° |
| 2026-04-30 06:41 | 33.94562 | 10.76969 | 4526 ft | 218 kts | 303° |
| 2026-04-30 06:41 | 33.95128 | 10.75963 | 4986 ft | 220 kts | 303° |
| 2026-04-30 06:41 | 33.95990 | 10.74438 | 5688 ft | 221 kts | 303° |
| 2026-04-30 06:42 | 33.96859 | 10.72908 | 6409 ft | 222 kts | 303° |
| 2026-04-30 06:42 | 33.97773 | 10.71403 | 7086 ft | 224 kts | 312° |
| 2026-04-30 06:42 | 33.99065 | 10.70220 | 7418 ft | 248 kts | 331° |
| 2026-04-30 06:42 | 34.00697 | 10.69289 | 7737 ft | 269 kts | 332° |
| 2026-04-30 06:43 | 34.02417 | 10.68315 | 8411 ft | 275 kts | 333° |
| 2026-04-30 06:43 | 34.04158 | 10.67325 | 9180 ft | 278 kts | 332° |
| 2026-04-30 06:43 | 34.05918 | 10.66319 | 9949 ft | 282 kts | 332° |
| 2026-04-30 06:43 | 34.07722 | 10.65281 | 10397 ft | 297 kts | 332° |
| 2026-04-30 06:44 | 34.09652 | 10.64159 | 10600 ft | 319 kts | 332° |
| 2026-04-30 06:44 | 34.11688 | 10.62975 | 11096 ft | 328 kts | 332° |
| 2026-04-30 06:44 | 34.13762 | 10.61774 | 11742 ft | 333 kts | 332° |
| 2026-04-30 06:44 | 34.15861 | 10.60560 | 12432 ft | 337 kts | 332° |
| 2026-04-30 06:45 | 34.17984 | 10.59336 | 13119 ft | 340 kts | 332° |
| 2026-04-30 06:45 | 34.20129 | 10.58099 | 13789 ft | 344 kts | 332° |
| 2026-04-30 06:45 | 34.22297 | 10.56839 | 14375 ft | 347 kts | 332° |
| 2026-04-30 06:45 | 34.24480 | 10.55566 | 14987 ft | 350 kts | 332° |
| 2026-04-30 06:46 | 34.26679 | 10.54284 | 15585 ft | 352 kts | 332° |
| 2026-04-30 06:46 | 34.28893 | 10.52983 | 16198 ft | 355 kts | 332° |
| 2026-04-30 06:46 | 34.31090 | 10.51684 | 16797 ft | 357 kts | 332° |
| 2026-04-30 06:46 | 34.33329 | 10.50358 | 17374 ft | 360 kts | 331° |
| 2026-04-30 06:47 | 34.35585 | 10.49018 | 17954 ft | 363 kts | 331° |
| 2026-04-30 06:47 | 34.37862 | 10.47664 | 18496 ft | 366 kts | 331° |
| 2026-04-30 06:47 | 34.40159 | 10.46302 | 19005 ft | 368 kts | 332° |
| 2026-04-30 06:47 | 34.42465 | 10.44936 | 19537 ft | 370 kts | 331° |
| 2026-04-30 06:48 | 34.44784 | 10.43560 | 20072 ft | 372 kts | 331° |
| 2026-04-30 06:48 | 34.47109 | 10.42179 | 20619 ft | 373 kts | 331° |
| 2026-04-30 06:48 | 34.49440 | 10.40794 | 21153 ft | 375 kts | 331° |
| 2026-04-30 06:48 | 34.51789 | 10.39398 | 21691 ft | 376 kts | 331° |
| 2026-04-30 06:49 | 34.54144 | 10.37996 | 22223 ft | 378 kts | 331° |
| 2026-04-30 06:49 | 34.56515 | 10.36582 | 22735 ft | 381 kts | 331° |
| 2026-04-30 06:49 | 34.58898 | 10.35161 | 23215 ft | 383 kts | 331° |
| 2026-04-30 06:49 | 34.61297 | 10.33731 | 23684 ft | 385 kts | 331° |
| 2026-04-30 06:50 | 34.63713 | 10.32291 | 24084 ft | 387 kts | 331° |
| 2026-04-30 06:50 | 34.66136 | 10.30845 | 24471 ft | 389 kts | 330° |
| 2026-04-30 06:50 | 34.68569 | 10.29390 | 24857 ft | 391 kts | 330° |
| 2026-04-30 06:50 | 34.71017 | 10.27925 | 25228 ft | 393 kts | 330° |
| 2026-04-30 06:51 | 34.73475 | 10.26451 | 25600 ft | 394 kts | 330° |
| 2026-04-30 06:51 | 34.75940 | 10.24973 | 25958 ft | 396 kts | 330° |
| 2026-04-30 06:51 | 34.78418 | 10.23493 | 26310 ft | 398 kts | 330° |
| 2026-04-30 06:51 | 34.80907 | 10.22005 | 26659 ft | 400 kts | 330° |
| 2026-04-30 06:52 | 34.83405 | 10.20510 | 27033 ft | 401 kts | 330° |
| 2026-04-30 06:52 | 34.85913 | 10.19007 | 27400 ft | 402 kts | 330° |
| 2026-04-30 06:52 | 34.88391 | 10.17520 | 27735 ft | 403 kts | 330° |
| 2026-04-30 06:52 | 34.90913 | 10.16007 | 28056 ft | 405 kts | 330° |
| 2026-04-30 06:53 | 34.93445 | 10.14488 | 28389 ft | 407 kts | 329° |
| 2026-04-30 06:53 | 34.95989 | 10.12959 | 28707 ft | 408 kts | 329° |
| 2026-04-30 06:53 | 34.98541 | 10.11424 | 29012 ft | 410 kts | 329° |
| 2026-04-30 06:53 | 35.01106 | 10.09877 | 29317 ft | 412 kts | 329° |
| 2026-04-30 06:54 | 35.03676 | 10.08326 | 29607 ft | 413 kts | 329° |
| 2026-04-30 06:54 | 35.06255 | 10.06766 | 29890 ft | 415 kts | 329° |
| 2026-04-30 06:54 | 35.08848 | 10.05199 | 30162 ft | 416 kts | 329° |
| 2026-04-30 06:54 | 35.11451 | 10.03627 | 30359 ft | 419 kts | 329° |
| 2026-04-30 06:55 | 35.14068 | 10.02046 | 30563 ft | 421 kts | 329° |
| 2026-04-30 06:55 | 35.16693 | 10.00441 | 30780 ft | 422 kts | 328° |
| 2026-04-30 06:55 | 35.19289 | 9.98769 | 30998 ft | 422 kts | 327° |
| 2026-04-30 06:55 | 35.21859 | 9.97050 | 31298 ft | 421 kts | 327° |
| 2026-04-30 06:56 | 35.24410 | 9.95313 | 31602 ft | 419 kts | 326° |
| 2026-04-30 06:56 | 35.26960 | 9.93577 | 31898 ft | 419 kts | 327° |
| 2026-04-30 06:56 | 35.29507 | 9.91857 | 32195 ft | 418 kts | 327° |
| 2026-04-30 06:56 | 35.32055 | 9.90151 | 32490 ft | 417 kts | 327° |
| 2026-04-30 06:57 | 35.34605 | 9.88451 | 32785 ft | 416 kts | 327° |
| 2026-04-30 06:57 | 35.37148 | 9.86762 | 33103 ft | 415 kts | 327° |
| 2026-04-30 06:57 | 35.39684 | 9.85079 | 33421 ft | 414 kts | 327° |
| 2026-04-30 06:57 | 35.42214 | 9.83399 | 33720 ft | 413 kts | 327° |
| 2026-04-30 06:58 | 35.44742 | 9.81715 | 33978 ft | 413 kts | 327° |
| 2026-04-30 06:58 | 35.47265 | 9.80028 | 34196 ft | 413 kts | 327° |
| 2026-04-30 06:58 | 35.49789 | 9.78336 | 34430 ft | 413 kts | 327° |
| 2026-04-30 06:58 | 35.52310 | 9.76642 | 34642 ft | 412 kts | 327° |
| 2026-04-30 06:59 | 35.54826 | 9.74952 | 34845 ft | 412 kts | 326° |
| 2026-04-30 06:59 | 35.57346 | 9.73260 | 35045 ft | 412 kts | 326° |
| 2026-04-30 06:59 | 35.59860 | 9.71572 | 35255 ft | 412 kts | 326° |
| 2026-04-30 06:59 | 35.62378 | 9.69883 | 35452 ft | 412 kts | 326° |
| 2026-04-30 07:00 | 35.64891 | 9.68198 | 35645 ft | 411 kts | 326° |
| 2026-04-30 07:00 | 35.67373 | 9.66534 | 35836 ft | 411 kts | 326° |
| 2026-04-30 07:00 | 35.69883 | 9.64850 | 36003 ft | 411 kts | 326° |
| 2026-04-30 07:01 | 35.74936 | 9.61604 | 36044 ft | 409 kts | 328° |
| 2026-04-30 07:01 | 35.80097 | 9.58610 | 36043 ft | 410 kts | 329° |
| 2026-04-30 07:02 | 35.85260 | 9.55651 | 36045 ft | 409 kts | 329° |
| 2026-04-30 07:02 | 35.90397 | 9.52633 | 36047 ft | 408 kts | 329° |
| 2026-04-30 07:03 | 35.95508 | 9.49595 | 36041 ft | 408 kts | 328° |
| 2026-04-30 07:03 | 36.00633 | 9.46569 | 36051 ft | 408 kts | 329° |
| 2026-04-30 07:04 | 36.05759 | 9.43553 | 36048 ft | 408 kts | 329° |
| 2026-04-30 07:04 | 36.10888 | 9.40519 | 36052 ft | 408 kts | 329° |
| 2026-04-30 07:05 | 36.18573 | 9.35958 | 36080 ft | 408 kts | 328° |
| 2026-04-30 07:05 | 36.23681 | 9.32919 | 36072 ft | 407 kts | 328° |
| 2026-04-30 07:06 | 36.28784 | 9.29887 | 36074 ft | 407 kts | 328° |
| 2026-04-30 07:06 | 36.33885 | 9.26854 | 36055 ft | 406 kts | 328° |
| 2026-04-30 07:07 | 36.38983 | 9.23821 | 36075 ft | 407 kts | 328° |
| 2026-04-30 07:07 | 36.44076 | 9.20776 | 36078 ft | 406 kts | 328° |
| 2026-04-30 07:08 | 36.49156 | 9.17730 | 36072 ft | 405 kts | 328° |
| 2026-04-30 07:08 | 36.54228 | 9.14698 | 36069 ft | 405 kts | 328° |
| 2026-04-30 07:09 | 36.59297 | 9.11655 | 36062 ft | 404 kts | 328° |
| 2026-04-30 07:09 | 36.64325 | 9.08630 | 36059 ft | 404 kts | 328° |
| 2026-04-30 07:10 | 36.69412 | 9.05559 | 36078 ft | 404 kts | 328° |
| 2026-04-30 07:10 | 36.74463 | 9.02509 | 36066 ft | 403 kts | 328° |
| 2026-04-30 07:11 | 36.79503 | 8.99457 | 36073 ft | 403 kts | 328° |
| 2026-04-30 07:11 | 36.84540 | 8.96401 | 36070 ft | 403 kts | 328° |
| 2026-04-30 07:12 | 36.89585 | 8.93352 | 36070 ft | 403 kts | 328° |
| 2026-04-30 07:12 | 36.94626 | 8.90301 | 36084 ft | 403 kts | 329° |
| 2026-04-30 07:13 | 37.00098 | 8.88421 | 36079 ft | 418 kts | 348° |
| 2026-04-30 07:13 | 37.05966 | 8.88361 | 36074 ft | 423 kts | 353° |
| 2026-04-30 07:14 | 37.11847 | 8.88373 | 36066 ft | 422 kts | 352° |
| 2026-04-30 07:14 | 37.17727 | 8.88363 | 36084 ft | 422 kts | 353° |
| 2026-04-30 07:15 | 37.23604 | 8.88356 | 36072 ft | 422 kts | 353° |
| 2026-04-30 07:15 | 37.29432 | 8.88361 | 36055 ft | 422 kts | 353° |
| 2026-04-30 07:16 | 37.35300 | 8.88358 | 36051 ft | 421 kts | 353° |
| 2026-04-30 07:16 | 37.41166 | 8.88356 | 36070 ft | 421 kts | 353° |
| 2026-04-30 07:17 | 37.47027 | 8.88363 | 36060 ft | 421 kts | 353° |
| 2026-04-30 07:18 | 37.55801 | 8.88367 | 36053 ft | 420 kts | 353° |
| 2026-04-30 07:18 | 37.61645 | 8.88355 | 36047 ft | 420 kts | 353° |
| 2026-04-30 07:19 | 37.67480 | 8.88351 | 36061 ft | 419 kts | 353° |
| 2026-04-30 07:19 | 37.73278 | 8.88354 | 36049 ft | 419 kts | 353° |
| 2026-04-30 07:20 | 37.79101 | 8.88363 | 36047 ft | 418 kts | 353° |
| 2026-04-30 07:20 | 37.84920 | 8.88364 | 36050 ft | 418 kts | 353° |
| 2026-04-30 07:21 | 37.90734 | 8.88365 | 36062 ft | 417 kts | 353° |
| 2026-04-30 07:21 | 37.96537 | 8.88361 | 36058 ft | 417 kts | 353° |
| 2026-04-30 07:22 | 38.05242 | 8.88365 | 36049 ft | 417 kts | 353° |
| 2026-04-30 07:22 | 38.11041 | 8.88367 | 36046 ft | 416 kts | 353° |
| 2026-04-30 07:23 | 38.16834 | 8.88362 | 36050 ft | 416 kts | 353° |
| 2026-04-30 07:23 | 38.22630 | 8.88360 | 36047 ft | 416 kts | 353° |
| 2026-04-30 07:24 | 38.28421 | 8.88366 | 36043 ft | 416 kts | 353° |
| 2026-04-30 07:24 | 38.34213 | 8.88370 | 36061 ft | 416 kts | 353° |
| 2026-04-30 07:25 | 38.39967 | 8.88367 | 36058 ft | 416 kts | 353° |
| 2026-04-30 07:25 | 38.45751 | 8.88359 | 36061 ft | 416 kts | 353° |
| 2026-04-30 07:26 | 38.51548 | 8.89208 | 36051 ft | 429 kts | 11° |
| 2026-04-30 07:26 | 38.56934 | 8.92788 | 36066 ft | 448 kts | 33° |
| 2026-04-30 07:27 | 38.61751 | 8.97890 | 36058 ft | 450 kts | 33° |
| 2026-04-30 07:27 | 38.66561 | 9.03012 | 36053 ft | 450 kts | 33° |
| 2026-04-30 07:28 | 38.70567 | 9.07272 | 36054 ft | 450 kts | 33° |
| 2026-04-30 07:28 | 38.75386 | 9.12399 | 36066 ft | 450 kts | 33° |
| 2026-04-30 07:29 | 38.80199 | 9.17536 | 36085 ft | 450 kts | 33° |
| 2026-04-30 07:29 | 38.85005 | 9.22675 | 36082 ft | 450 kts | 33° |
| 2026-04-30 07:30 | 38.92203 | 9.30392 | 36073 ft | 449 kts | 33° |
| 2026-04-30 07:31 | 38.96991 | 9.35547 | 36071 ft | 449 kts | 33° |
| 2026-04-30 07:31 | 39.01784 | 9.40705 | 36084 ft | 449 kts | 33° |
| 2026-04-30 07:32 | 39.06662 | 9.45669 | 36079 ft | 441 kts | 24° |
| 2026-04-30 07:32 | 39.09372 | 9.47408 | 36093 ft | 431 kts | 13° |
| 2026-04-30 07:32 | 39.12219 | 9.48480 | 36092 ft | 422 kts | 4° |
| 2026-04-30 07:33 | 39.17941 | 9.48696 | 36080 ft | 405 kts | 345° |
| 2026-04-30 07:33 | 39.23408 | 9.47137 | 36093 ft | 402 kts | 341° |
| 2026-04-30 07:34 | 39.28832 | 9.45509 | 36088 ft | 403 kts | 342° |
| 2026-04-30 07:34 | 39.34328 | 9.43853 | 36082 ft | 403 kts | 342° |
| 2026-04-30 07:35 | 39.39797 | 9.42205 | 36100 ft | 404 kts | 342° |
| 2026-04-30 07:35 | 39.45265 | 9.40557 | 36123 ft | 404 kts | 342° |
| 2026-04-30 07:36 | 39.50743 | 9.38911 | 36134 ft | 404 kts | 342° |
| 2026-04-30 07:36 | 39.56215 | 9.37269 | 36091 ft | 404 kts | 342° |
| 2026-04-30 07:37 | 39.61682 | 9.35614 | 36091 ft | 403 kts | 342° |
| 2026-04-30 07:37 | 39.67149 | 9.33949 | 36102 ft | 403 kts | 342° |
| 2026-04-30 07:38 | 39.72607 | 9.32280 | 36099 ft | 403 kts | 342° |
| 2026-04-30 07:38 | 39.78067 | 9.30621 | 36091 ft | 403 kts | 342° |
| 2026-04-30 07:39 | 39.83527 | 9.28966 | 36087 ft | 402 kts | 342° |
| 2026-04-30 07:39 | 39.88980 | 9.27304 | 36101 ft | 402 kts | 342° |
| 2026-04-30 07:40 | 39.94397 | 9.25644 | 36091 ft | 402 kts | 342° |
| 2026-04-30 07:40 | 39.99840 | 9.23967 | 36089 ft | 402 kts | 342° |
| 2026-04-30 07:41 | 40.05291 | 9.22293 | 36084 ft | 402 kts | 342° |
| 2026-04-30 07:41 | 40.10738 | 9.20620 | 36083 ft | 402 kts | 342° |
| 2026-04-30 07:42 | 40.16191 | 9.18940 | 36092 ft | 402 kts | 342° |
| 2026-04-30 07:42 | 40.21633 | 9.17256 | 36089 ft | 402 kts | 342° |
| 2026-04-30 07:43 | 40.27081 | 9.15574 | 36080 ft | 402 kts | 342° |
| 2026-04-30 07:43 | 40.32526 | 9.13895 | 36080 ft | 402 kts | 342° |
| 2026-04-30 07:44 | 40.37977 | 9.12207 | 36082 ft | 403 kts | 342° |
| 2026-04-30 07:44 | 40.43430 | 9.10513 | 36084 ft | 403 kts | 342° |
| 2026-04-30 07:45 | 40.48883 | 9.08814 | 36068 ft | 403 kts | 342° |
| 2026-04-30 07:45 | 40.54341 | 9.07121 | 36068 ft | 403 kts | 342° |
| 2026-04-30 07:46 | 40.59802 | 9.05415 | 36079 ft | 403 kts | 342° |
| 2026-04-30 07:46 | 40.65267 | 9.03703 | 36082 ft | 404 kts | 342° |
| 2026-04-30 07:47 | 40.70729 | 9.01991 | 36080 ft | 404 kts | 342° |
| 2026-04-30 07:47 | 40.76196 | 9.00282 | 36078 ft | 404 kts | 342° |
| 2026-04-30 07:48 | 40.81668 | 8.98560 | 36097 ft | 404 kts | 342° |
| 2026-04-30 07:48 | 40.87137 | 8.96839 | 36090 ft | 404 kts | 342° |
| 2026-04-30 07:49 | 40.92572 | 8.95126 | 36087 ft | 404 kts | 342° |
| 2026-04-30 07:49 | 40.98033 | 8.93396 | 36078 ft | 404 kts | 342° |
| 2026-04-30 07:50 | 41.03503 | 8.91670 | 36088 ft | 404 kts | 342° |
| 2026-04-30 07:50 | 41.08972 | 8.89939 | 36086 ft | 404 kts | 342° |
| 2026-04-30 07:51 | 41.14433 | 8.88208 | 36080 ft | 403 kts | 342° |
| 2026-04-30 07:51 | 41.19894 | 8.86472 | 36080 ft | 403 kts | 342° |
| 2026-04-30 07:52 | 41.25350 | 8.84724 | 36095 ft | 403 kts | 341° |
| 2026-04-30 07:52 | 41.30709 | 8.82587 | 36092 ft | 401 kts | 338° |
| 2026-04-30 07:53 | 41.36256 | 8.81361 | 36085 ft | 411 kts | 356° |
| 2026-04-30 07:53 | 41.41990 | 8.81613 | 36081 ft | 413 kts | 357° |
| 2026-04-30 07:54 | 41.47695 | 8.81969 | 36088 ft | 413 kts | 357° |
| 2026-04-30 07:54 | 41.53471 | 8.82300 | 36099 ft | 413 kts | 357° |
| 2026-04-30 07:55 | 41.59216 | 8.82600 | 36096 ft | 413 kts | 357° |
| 2026-04-30 07:55 | 41.64965 | 8.82901 | 36110 ft | 413 kts | 357° |
| 2026-04-30 07:56 | 41.70676 | 8.83200 | 36095 ft | 414 kts | 357° |
| 2026-04-30 07:56 | 41.76428 | 8.83503 | 36090 ft | 414 kts | 357° |
| 2026-04-30 07:57 | 41.82193 | 8.83808 | 36086 ft | 414 kts | 357° |
| 2026-04-30 07:57 | 41.87949 | 8.84116 | 36100 ft | 414 kts | 357° |
| 2026-04-30 07:58 | 41.93716 | 8.84425 | 36088 ft | 415 kts | 357° |
| 2026-04-30 07:58 | 41.99491 | 8.84728 | 36085 ft | 415 kts | 357° |
| 2026-04-30 07:59 | 42.05269 | 8.85038 | 36087 ft | 416 kts | 357° |
| 2026-04-30 07:59 | 42.11048 | 8.85355 | 36092 ft | 416 kts | 357° |
| 2026-04-30 08:00 | 42.19681 | 8.85818 | 36087 ft | 416 kts | 357° |
| 2026-04-30 08:00 | 42.25495 | 8.86128 | 36084 ft | 416 kts | 357° |
| 2026-04-30 08:01 | 42.31236 | 8.86435 | 36081 ft | 416 kts | 358° |
| 2026-04-30 08:01 | 42.37031 | 8.86750 | 36067 ft | 416 kts | 357° |
| 2026-04-30 08:02 | 42.45722 | 8.87225 | 36048 ft | 417 kts | 357° |
| 2026-04-30 08:03 | 42.57320 | 8.87867 | 36058 ft | 417 kts | 357° |
| 2026-04-30 08:04 | 42.63126 | 8.88185 | 36060 ft | 417 kts | 357° |
| 2026-04-30 08:04 | 42.68933 | 8.88493 | 36086 ft | 418 kts | 357° |
| 2026-04-30 08:05 | 42.74741 | 8.88801 | 36085 ft | 418 kts | 358° |
| 2026-04-30 08:05 | 42.80560 | 8.89124 | 36097 ft | 419 kts | 358° |
| 2026-04-30 08:06 | 42.86388 | 8.89655 | 36120 ft | 420 kts | 0° |
| 2026-04-30 08:06 | 42.92182 | 8.90398 | 36135 ft | 421 kts | 1° |
| 2026-04-30 08:07 | 42.98019 | 8.91142 | 36142 ft | 422 kts | 0° |
| 2026-04-30 08:07 | 43.03866 | 8.91833 | 36151 ft | 422 kts | 0° |
| 2026-04-30 08:08 | 43.09718 | 8.92499 | 36159 ft | 422 kts | 0° |
| 2026-04-30 08:08 | 43.15575 | 8.93178 | 36163 ft | 422 kts | 0° |
| 2026-04-30 08:09 | 43.21436 | 8.93868 | 36166 ft | 423 kts | 0° |
| 2026-04-30 08:09 | 43.27301 | 8.94559 | 36166 ft | 423 kts | 0° |
| 2026-04-30 08:10 | 43.33162 | 8.95216 | 36191 ft | 423 kts | 360° |
| 2026-04-30 08:10 | 43.39027 | 8.95846 | 36184 ft | 422 kts | 359° |
| 2026-04-30 08:11 | 43.44893 | 8.96050 | 36186 ft | 420 kts | 355° |
| 2026-04-30 08:11 | 43.50731 | 8.95917 | 36197 ft | 420 kts | 354° |
| 2026-04-30 08:12 | 43.55589 | 8.95819 | 36194 ft | 420 kts | 355° |
| 2026-04-30 08:12 | 43.61435 | 8.95788 | 36192 ft | 420 kts | 355° |
| 2026-04-30 08:13 | 43.67291 | 8.95855 | 36191 ft | 421 kts | 356° |
| 2026-04-30 08:13 | 43.73143 | 8.96073 | 36203 ft | 421 kts | 357° |
| 2026-04-30 08:14 | 43.78993 | 8.96303 | 36195 ft | 420 kts | 357° |
| 2026-04-30 08:14 | 43.84841 | 8.96488 | 36193 ft | 420 kts | 356° |
| 2026-04-30 08:15 | 43.90687 | 8.96658 | 36209 ft | 420 kts | 356° |
| 2026-04-30 08:15 | 43.96519 | 8.96839 | 36205 ft | 419 kts | 356° |
| 2026-04-30 08:16 | 44.02347 | 8.97021 | 36202 ft | 419 kts | 356° |
| 2026-04-30 08:16 | 44.08173 | 8.97197 | 36204 ft | 419 kts | 356° |
| 2026-04-30 08:17 | 44.13994 | 8.97378 | 36203 ft | 418 kts | 356° |
| 2026-04-30 08:17 | 44.19769 | 8.97554 | 36201 ft | 417 kts | 356° |
| 2026-04-30 08:18 | 44.25574 | 8.97730 | 36197 ft | 417 kts | 356° |
| 2026-04-30 08:18 | 44.31417 | 8.97912 | 36209 ft | 417 kts | 356° |
| 2026-04-30 08:19 | 44.37167 | 8.98096 | 36208 ft | 416 kts | 356° |
| 2026-04-30 08:19 | 44.42954 | 8.98275 | 36206 ft | 416 kts | 356° |
| 2026-04-30 08:20 | 44.48735 | 8.98455 | 36202 ft | 416 kts | 356° |
| 2026-04-30 08:20 | 44.54512 | 8.98639 | 36206 ft | 415 kts | 356° |
| 2026-04-30 08:21 | 44.60293 | 8.98820 | 36203 ft | 415 kts | 356° |
| 2026-04-30 08:21 | 44.66068 | 8.98996 | 36229 ft | 415 kts | 356° |
| 2026-04-30 08:22 | 44.71847 | 8.99176 | 36237 ft | 415 kts | 356° |
| 2026-04-30 08:22 | 44.77613 | 8.99357 | 36249 ft | 414 kts | 356° |
| 2026-04-30 08:23 | 44.83380 | 8.99549 | 36260 ft | 414 kts | 356° |
| 2026-04-30 08:23 | 44.89135 | 8.99739 | 36275 ft | 413 kts | 356° |
| 2026-04-30 08:24 | 44.94884 | 8.99924 | 36275 ft | 413 kts | 356° |
| 2026-04-30 08:24 | 45.00618 | 9.00099 | 36291 ft | 412 kts | 356° |
| 2026-04-30 08:25 | 45.06349 | 9.00277 | 36302 ft | 412 kts | 357° |
| 2026-04-30 08:25 | 45.12078 | 9.00463 | 36293 ft | 412 kts | 357° |
| 2026-04-30 08:26 | 45.17801 | 9.00651 | 36287 ft | 411 kts | 357° |
| 2026-04-30 08:26 | 45.23528 | 9.00833 | 36294 ft | 411 kts | 358° |
| 2026-04-30 08:27 | 45.29258 | 9.01017 | 36299 ft | 412 kts | 358° |
| 2026-04-30 08:27 | 45.34991 | 9.01205 | 36299 ft | 412 kts | 358° |
| 2026-04-30 08:28 | 45.40722 | 9.01392 | 36301 ft | 412 kts | 358° |
| 2026-04-30 08:28 | 45.46456 | 9.01573 | 36306 ft | 413 kts | 359° |
| 2026-04-30 08:29 | 45.52201 | 9.01758 | 36306 ft | 413 kts | 359° |
| 2026-04-30 08:29 | 45.57944 | 9.01953 | 36307 ft | 413 kts | 359° |
| 2026-04-30 08:30 | 45.63697 | 9.02140 | 36317 ft | 414 kts | 359° |
| 2026-04-30 08:30 | 45.69456 | 9.02338 | 36292 ft | 414 kts | 359° |
| 2026-04-30 08:31 | 45.75220 | 9.02583 | 36306 ft | 414 kts | 360° |
| 2026-04-30 08:31 | 45.80988 | 9.02839 | 36317 ft | 415 kts | 360° |
| 2026-04-30 08:32 | 45.86755 | 9.03082 | 36328 ft | 415 kts | 0° |
| 2026-04-30 08:32 | 45.92493 | 9.03312 | 36327 ft | 415 kts | 0° |
| 2026-04-30 08:33 | 45.98266 | 9.03548 | 36330 ft | 415 kts | 0° |
| 2026-04-30 08:33 | 46.04045 | 9.03790 | 36341 ft | 415 kts | 1° |
| 2026-04-30 08:34 | 46.09806 | 9.04029 | 36341 ft | 414 kts | 1° |
| 2026-04-30 08:34 | 46.15563 | 9.04251 | 36344 ft | 413 kts | 359° |
| 2026-04-30 08:35 | 46.21282 | 9.03564 | 36346 ft | 413 kts | 354° |
| 2026-04-30 08:35 | 46.26988 | 9.02804 | 36343 ft | 411 kts | 355° |
| 2026-04-30 08:36 | 46.32688 | 9.02039 | 36331 ft | 410 kts | 355° |
| 2026-04-30 08:36 | 46.38366 | 9.01275 | 36313 ft | 410 kts | 355° |
| 2026-04-30 08:37 | 46.44044 | 9.00513 | 36280 ft | 409 kts | 355° |
| 2026-04-30 08:37 | 46.49676 | 8.99755 | 36265 ft | 409 kts | 355° |
| 2026-04-30 08:38 | 46.55341 | 8.98994 | 36261 ft | 408 kts | 355° |
| 2026-04-30 08:38 | 46.61001 | 8.98229 | 36258 ft | 408 kts | 355° |
| 2026-04-30 08:39 | 46.66662 | 8.97471 | 36248 ft | 408 kts | 355° |
| 2026-04-30 08:39 | 46.72316 | 8.96706 | 36230 ft | 408 kts | 355° |
| 2026-04-30 08:40 | 46.77960 | 8.95936 | 36212 ft | 408 kts | 355° |
| 2026-04-30 08:40 | 46.83615 | 8.95164 | 36208 ft | 409 kts | 355° |
| 2026-04-30 08:41 | 46.89274 | 8.94396 | 36200 ft | 408 kts | 355° |
| 2026-04-30 08:41 | 46.94937 | 8.93626 | 36202 ft | 409 kts | 355° |
| 2026-04-30 08:42 | 47.00596 | 8.92842 | 36206 ft | 409 kts | 355° |
| 2026-04-30 08:42 | 47.06260 | 8.92057 | 36203 ft | 409 kts | 356° |
| 2026-04-30 08:42 | 47.09094 | 8.91667 | 36026 ft | 410 kts | 356° |
| 2026-04-30 08:43 | 47.11937 | 8.91275 | 35795 ft | 409 kts | 355° |
| 2026-04-30 08:43 | 47.14741 | 8.90540 | 35551 ft | 410 kts | 346° |
| 2026-04-30 08:43 | 47.17419 | 8.89115 | 35306 ft | 411 kts | 337° |
| 2026-04-30 08:43 | 47.19920 | 8.87082 | 35059 ft | 410 kts | 332° |
| 2026-04-30 08:44 | 47.22360 | 8.84935 | 34597 ft | 407 kts | 333° |
| 2026-04-30 08:44 | 47.24786 | 8.82801 | 34061 ft | 406 kts | 333° |
| 2026-04-30 08:44 | 47.27203 | 8.80675 | 33524 ft | 403 kts | 334° |
| 2026-04-30 08:44 | 47.29602 | 8.78570 | 33029 ft | 399 kts | 334° |
| 2026-04-30 08:45 | 47.31981 | 8.76485 | 32530 ft | 397 kts | 334° |
| 2026-04-30 08:45 | 47.34342 | 8.74409 | 32032 ft | 394 kts | 334° |
| 2026-04-30 08:45 | 47.36685 | 8.72342 | 31544 ft | 391 kts | 334° |
| 2026-04-30 08:45 | 47.39018 | 8.70284 | 31065 ft | 389 kts | 334° |
| 2026-04-30 08:46 | 47.41336 | 8.68240 | 30594 ft | 388 kts | 334° |
| 2026-04-30 08:46 | 47.43649 | 8.66199 | 30098 ft | 386 kts | 334° |
| 2026-04-30 08:46 | 47.45948 | 8.64167 | 29631 ft | 383 kts | 334° |
| 2026-04-30 08:46 | 47.48222 | 8.62151 | 29185 ft | 380 kts | 334° |
| 2026-04-30 08:47 | 47.50476 | 8.60153 | 28741 ft | 376 kts | 334° |
| 2026-04-30 08:47 | 47.52711 | 8.58171 | 28310 ft | 373 kts | 334° |
| 2026-04-30 08:47 | 47.54929 | 8.56203 | 27879 ft | 370 kts | 334° |
| 2026-04-30 08:47 | 47.57128 | 8.54252 | 27444 ft | 367 kts | 334° |
| 2026-04-30 08:48 | 47.59312 | 8.52312 | 27011 ft | 364 kts | 334° |
| 2026-04-30 08:48 | 47.61480 | 8.50378 | 26563 ft | 362 kts | 334° |
| 2026-04-30 08:48 | 47.63603 | 8.48479 | 26129 ft | 360 kts | 334° |
| 2026-04-30 08:48 | 47.65744 | 8.46561 | 25677 ft | 359 kts | 334° |
| 2026-04-30 08:49 | 47.67847 | 8.44571 | 25217 ft | 361 kts | 328° |
| 2026-04-30 08:49 | 47.69705 | 8.42034 | 24747 ft | 367 kts | 316° |
| 2026-04-30 08:49 | 47.71240 | 8.38999 | 24258 ft | 369 kts | 310° |
| 2026-04-30 08:49 | 47.72725 | 8.35891 | 23770 ft | 369 kts | 310° |
| 2026-04-30 08:50 | 47.74216 | 8.32782 | 23240 ft | 368 kts | 310° |
| 2026-04-30 08:50 | 47.75701 | 8.29696 | 22765 ft | 366 kts | 310° |
| 2026-04-30 08:50 | 47.77177 | 8.26623 | 22292 ft | 365 kts | 310° |
| 2026-04-30 08:50 | 47.78650 | 8.23562 | 21816 ft | 364 kts | 310° |
| 2026-04-30 08:51 | 47.80119 | 8.20506 | 21363 ft | 362 kts | 310° |
| 2026-04-30 08:51 | 47.81578 | 8.17463 | 20893 ft | 360 kts | 311° |
| 2026-04-30 08:51 | 47.83025 | 8.14433 | 20450 ft | 358 kts | 310° |
| 2026-04-30 08:51 | 47.84463 | 8.11415 | 19995 ft | 357 kts | 310° |
| 2026-04-30 08:52 | 47.85898 | 8.08404 | 19539 ft | 356 kts | 310° |
| 2026-04-30 08:52 | 47.87333 | 8.05400 | 19090 ft | 356 kts | 310° |
| 2026-04-30 08:52 | 47.88764 | 8.02400 | 18651 ft | 355 kts | 310° |
| 2026-04-30 08:52 | 47.90196 | 7.99392 | 18159 ft | 355 kts | 310° |
| 2026-04-30 08:53 | 47.91605 | 7.96429 | 17716 ft | 354 kts | 311° |
| 2026-04-30 08:53 | 47.93023 | 7.93443 | 17287 ft | 352 kts | 311° |
| 2026-04-30 08:53 | 47.94434 | 7.90464 | 16863 ft | 351 kts | 310° |
| 2026-04-30 08:53 | 47.95836 | 7.87493 | 16448 ft | 350 kts | 309° |
| 2026-04-30 08:54 | 47.97234 | 7.84526 | 16028 ft | 348 kts | 309° |
| 2026-04-30 08:54 | 47.98626 | 7.81568 | 15614 ft | 347 kts | 308° |
| 2026-04-30 08:54 | 48.00010 | 7.78621 | 15200 ft | 346 kts | 308° |
| 2026-04-30 08:54 | 48.01391 | 7.75684 | 14794 ft | 345 kts | 309° |
| 2026-04-30 08:55 | 48.02771 | 7.72748 | 14380 ft | 345 kts | 308° |
| 2026-04-30 08:55 | 48.04146 | 7.69822 | 13956 ft | 344 kts | 308° |
| 2026-04-30 08:55 | 48.05503 | 7.66932 | 13498 ft | 335 kts | 307° |
| 2026-04-30 08:55 | 48.06822 | 7.64121 | 13013 ft | 325 kts | 307° |
| 2026-04-30 08:56 | 48.08121 | 7.61350 | 12537 ft | 326 kts | 308° |
| 2026-04-30 08:56 | 48.09380 | 7.58518 | 12050 ft | 329 kts | 299° |
| 2026-04-30 08:56 | 48.09995 | 7.55222 | 11563 ft | 334 kts | 273° |
| 2026-04-30 08:56 | 48.09632 | 7.51813 | 11054 ft | 335 kts | 246° |
| 2026-04-30 08:57 | 48.08371 | 7.48949 | 10655 ft | 330 kts | 223° |
| 2026-04-30 08:57 | 48.06472 | 7.47126 | 10281 ft | 321 kts | 198° |
| 2026-04-30 08:57 | 48.05085 | 7.46425 | 10185 ft | 313 kts | 194° |
| 2026-04-30 08:57 | 48.03050 | 7.45442 | 10033 ft | 300 kts | 194° |
| 2026-04-30 08:58 | 48.01131 | 7.44527 | 9903 ft | 278 kts | 193° |
| 2026-04-30 08:58 | 47.99320 | 7.43725 | 9540 ft | 267 kts | 192° |
| 2026-04-30 08:58 | 47.97546 | 7.42978 | 9030 ft | 263 kts | 192° |
| 2026-04-30 08:58 | 47.95795 | 7.42248 | 8477 ft | 260 kts | 192° |
| 2026-04-30 08:59 | 47.94062 | 7.41524 | 7934 ft | 257 kts | 192° |
| 2026-04-30 08:59 | 47.92351 | 7.40803 | 7422 ft | 254 kts | 192° |
| 2026-04-30 08:59 | 47.90648 | 7.40079 | 6899 ft | 252 kts | 192° |
| 2026-04-30 08:59 | 47.88978 | 7.39369 | 6421 ft | 247 kts | 191° |
| 2026-04-30 09:00 | 47.87341 | 7.38674 | 5989 ft | 242 kts | 191° |
| 2026-04-30 09:00 | 47.85728 | 7.37986 | 5611 ft | 240 kts | 191° |
| 2026-04-30 09:00 | 47.84152 | 7.37310 | 5411 ft | 228 kts | 190° |
| 2026-04-30 09:00 | 47.82653 | 7.36996 | 5333 ft | 210 kts | 172° |
| 2026-04-30 09:01 | 47.81267 | 7.37370 | 5115 ft | 199 kts | 155° |
| 2026-04-30 09:01 | 47.80021 | 7.38222 | 4818 ft | 197 kts | 149° |
| 2026-04-30 09:01 | 47.78779 | 7.39105 | 4533 ft | 199 kts | 150° |
| 2026-04-30 09:01 | 47.77526 | 7.39983 | 4281 ft | 198 kts | 151° |
| 2026-04-30 09:02 | 47.75173 | 7.41613 | 3752 ft | 177 kts | 150° |
| 2026-04-30 09:02 | 47.74068 | 7.42386 | 3507 ft | 178 kts | 150° |
| 2026-04-30 09:02 | 47.73003 | 7.43133 | 3282 ft | 178 kts | 151° |
| 2026-04-30 09:03 | 47.71877 | 7.43924 | 3028 ft | 178 kts | 151° |
| 2026-04-30 09:03 | 47.70789 | 7.44682 | 2803 ft | 167 kts | 150° |
| 2026-04-30 09:03 | 47.69771 | 7.45389 | 2562 ft | 157 kts | 151° |
| 2026-04-30 09:03 | 47.68822 | 7.46030 | 2508 ft | 147 kts | 151° |
| 2026-04-30 09:04 | 47.67907 | 7.46668 | 2438 ft | 144 kts | 150° |
| 2026-04-30 09:04 | 47.67013 | 7.47325 | 2430 ft | 143 kts | 150° |
| 2026-04-30 09:04 | 47.66122 | 7.47981 | 2501 ft | 143 kts | 149° |
| 2026-04-30 09:04 | 47.65227 | 7.48620 | 2465 ft | 142 kts | 149° |
| 2026-04-30 09:05 | 47.64328 | 7.49235 | 2404 ft | 142 kts | 152° |
| 2026-04-30 09:05 | 47.63415 | 7.49817 | 2415 ft | 143 kts | 152° |
| 2026-04-30 09:05 | 47.62613 | 7.50619 | 2433 ft | 136 kts | 119° |
| 2026-04-30 09:05 | 47.62229 | 7.51880 | 2369 ft | 135 kts | 108° |
| 2026-04-30 09:06 | 47.61903 | 7.53184 | 2344 ft | 135 kts | 105° |
| 2026-04-30 09:06 | 47.61891 | 7.54544 | 2281 ft | 135 kts | 76° |
| 2026-04-30 09:06 | 47.62137 | 7.55878 | 2129 ft | 133 kts | 72° |
| 2026-04-30 09:06 | 47.62384 | 7.57243 | 2046 ft | 139 kts | 74° |
| 2026-04-30 09:07 | 47.62392 | 7.58669 | 1997 ft | 143 kts | 109° |
| 2026-04-30 09:07 | 47.61752 | 7.59779 | 1970 ft | 146 kts | 152° |
| 2026-04-30 09:07 | 47.60767 | 7.59989 | 2019 ft | 147 kts | 194° |
| 2026-04-30 09:07 | 47.59946 | 7.59143 | 1836 ft | 146 kts | 242° |
| 2026-04-30 09:08 | 47.59713 | 7.57707 | 1587 ft | 145 kts | 263° |
| 2026-04-30 09:08 | 47.59502 | 7.56224 | 1297 ft | 148 kts | 258° |
| 2026-04-30 09:08 | 47.59269 | 7.54745 | 1056 ft | 146 kts | 259° |
| 2026-04-30 09:08 | 47.59047 | 7.53297 | 894 ft | 136 kts | 257° |
| 2026-04-30 09:09 | 47.58873 | 7.52193 | 892 ft | 71 kts | 256° |
| 2026-04-30 09:09 | 47.58809 | 7.51792 | 892 ft | 21 kts | 257° |
| 2026-04-30 09:09 | 47.58874 | 7.51683 | 887 ft | 18 kts | 344° |
| 2026-04-30 09:09 | 47.58985 | 7.51731 | 886 ft | 18 kts | 46° |
| 2026-04-30 09:10 | 47.59079 | 7.51867 | 886 ft | 20 kts | 45° |
| 2026-04-30 09:10 | 47.59174 | 7.52020 | 886 ft | 21 kts | 46° |
| 2026-04-30 09:10 | 47.59272 | 7.52183 | 886 ft | 22 kts | 63° |
| 2026-04-30 09:10 | 47.59339 | 7.52393 | 886 ft | 23 kts | 65° |
| 2026-04-30 09:11 | 47.59411 | 7.52615 | 888 ft | 24 kts | 64° |
| 2026-04-30 09:11 | 47.59477 | 7.52830 | 888 ft | 23 kts | 66° |
| 2026-04-30 09:11 | 47.59526 | 7.52929 | 889 ft | 9 kts | 8° |
| 2026-04-30 09:11 | 47.59591 | 7.52893 | 888 ft | 11 kts | 337° |
| 2026-04-30 09:12 | 47.59661 | 7.52914 | 888 ft | 12 kts | 59° |
| 2026-04-30 09:12 | 47.59703 | 7.53021 | 888 ft | 10 kts | 36° |
| 2026-04-30 09:12 | 47.59759 | 7.53070 | 888 ft | 10 kts | 68° |
| 2026-04-30 09:12 | 47.59783 | 7.53149 | 888 ft | 4 kts | 63° |
| 2026-04-30 09:13 | 47.59790 | 7.53171 | 888 ft | 0 kts | 65° |
| 2026-04-30 09:14 | 47.59790 | 7.53172 | 888 ft | 0 kts | 65° |
| 2026-04-30 09:14 | 47.59791 | 7.53172 | 888 ft | 0 kts | 65° |
| 2026-04-30 09:14 | 47.59791 | 7.53173 | 888 ft | 0 kts | 65° |
| 2026-04-30 09:15 | 47.59791 | 7.53174 | 888 ft | 0 kts | 65° |
| 2026-04-30 09:15 | 47.59791 | 7.53175 | 888 ft | 0 kts | 65° |
| 2026-04-30 09:15 | 47.59792 | 7.53176 | 888 ft | 0 kts | 65° |
| 2026-04-30 09:15 | 47.59792 | 7.53178 | 888 ft | 0 kts | 65° |
| 2026-04-30 09:16 | 47.59793 | 7.53181 | 888 ft | 0 kts | 65° |
| 2026-04-30 09:16 | 47.59794 | 7.53185 | 888 ft | 1 kts | 65° |
| 2026-04-30 09:16 | 47.59796 | 7.53191 | 888 ft | 1 kts | 65° |
| 2026-04-30 09:16 | 47.59799 | 7.53200 | 887 ft | 1 kts | 65° |
| 2026-04-30 09:17 | 47.59806 | 7.53223 | 887 ft | 4 kts | 65° |
| 2026-04-30 09:17 | 47.59823 | 7.53275 | 881 ft | 7 kts | 64° |
| 2026-04-30 09:17 | 47.59835 | 7.53310 | 881 ft | 0 kts | 62° |